Time;durP1;ratioP1;P1;durP2;ratioP2;P2;SDS_P1;SDS_P2;PMS_P1;PMS_P2;Temp;Humidity;BMP_temperature;BMP_pressure;BME280_temperature;BME280_humidity;BME280_pressure;Samples;Min_cycle;Max_cycle;Signal;HPM_P1;HPM_P2
2021/08/21 00:00:13;;;;;;;;;;;;;;;;;;10294985;28;20059;-66
2021/08/21 00:05:10;;;;;;;;;;;;;;;;;;10275026;28;19944;-66
2021/08/21 00:10:08;;;;;;;;;;;;;;;;;;10272794;28;19917;-66
2021/08/21 00:15:05;;;;;;;;;;;;;;;;;;10285264;28;19925;-66
2021/08/21 00:20:02;;;;;;;;;;;;;;;;;;10298236;28;19960;-66
2021/08/21 00:25:00;;;;;;;;;;;;;;;;;;10284278;28;19921;-66
2021/08/21 00:29:57;;;;;;;;;;;;;;;;;;10282229;28;20383;-66
2021/08/21 00:34:54;;;;;;;;;;;;;;;;;;10278473;28;19918;-66
2021/08/21 00:39:52;;;;;;;;;;;;;;;;;;10302121;28;19929;-66
2021/08/21 00:44:49;;;;;;;;;;;;;;;;;;10297532;28;19928;-67
2021/08/21 00:49:46;;;;;;;;;;;;;;;;;;10296576;28;19921;-66
2021/08/21 00:54:44;;;;;;;;;;;;;;;;;;10298330;28;19968;-66
2021/08/21 00:59:41;;;;;;;;;;;;;;;;;;10295014;28;19967;-66
2021/08/21 01:04:38;;;;;;;;;;;;;;;;;;10284202;28;19933;-66
2021/08/21 01:09:36;;;;;;;;;;;;;;;;;;10289636;28;19932;-66
2021/08/21 01:14:34;;;;;;;;;;;;;;;;;;10282717;28;20528;-66
2021/08/21 01:19:32;;;;;;;;;;;;;;;;;;10283937;28;20007;-67
2021/08/21 01:24:29;;;;;;;;;;;;;;;;;;10292043;28;19986;-66
2021/08/21 01:29:26;;;;;;;;;;;;;;;;;;10301622;28;19925;-66
2021/08/21 01:34:37;;;;;;;;;;;;;;;;;;10284645;28;20342;-66
2021/08/21 01:39:35;;;;;;;;;;;;;;;;;;10278145;28;19917;-66
2021/08/21 01:44:37;;;;;;;;;;;;;;;;;;10290548;28;19920;-66
2021/08/21 01:49:34;;;;;;;;;;;;;;;;;;10275051;28;20375;-66
2021/08/21 01:54:34;;;;;;;;;;;;;;;;;;10279916;28;20410;-67
2021/08/21 01:59:33;;;;;;;;;;;;;;;;;;10294758;28;20181;-67
2021/08/21 02:04:40;;;;;;;;;;;;;;;;;;10283182;28;20391;-67
2021/08/21 02:09:41;;;;;;;;;;;;;;;;;;10292805;28;19921;-66
2021/08/21 02:14:38;;;;;;;;;;;;;;;;;;10295084;28;19917;-66
2021/08/21 02:19:36;;;;;;;;;;;;;;;;;;10272227;28;20000;-66
2021/08/21 02:24:51;;;;;;;;;;;;;;;;;;10271150;28;19917;-66
2021/08/21 02:29:49;;;;;;;;;;;;;;;;;;10298302;28;19921;-66
2021/08/21 02:34:46;;;;;;;;;;;;;;;;;;10275263;28;20382;-66
2021/08/21 02:39:43;;;;;;;;;;;;;;;;;;10299226;28;20291;-67
2021/08/21 02:44:41;;;;;;;;;;;;;;;;;;10298874;28;19940;-66
2021/08/21 02:49:38;;;;;;;;;;;;;;;;;;10301534;28;20461;-67
2021/08/21 02:54:35;;;;;;;;;;;;;;;;;;10289897;28;20387;-67
2021/08/21 02:59:33;;;;;;;;;;;;;;;;;;10299235;28;19913;-67
2021/08/21 03:04:32;;;;;;;;;;;;;;;;;;10284207;28;20423;-67
2021/08/21 03:09:30;;;;;;;;;;;;;;;;;;10288415;28;20364;-66
2021/08/21 03:14:27;;;;;;;;;;;;;;;;;;10300951;28;19924;-66
2021/08/21 03:19:24;;;;;;;;;;;;;;;;;;10271641;28;20004;-66
2021/08/21 03:24:22;;;;;;;;;;;;;;;;;;10302879;28;19927;-66
2021/08/21 03:29:20;;;;;;;;;;;;;;;;;;10309143;28;19955;-67
2021/08/21 03:34:18;;;;;;;;;;;;;;;;;;10278985;28;19924;-66
2021/08/21 03:39:16;;;;;;;;;;;;;;;;;;10297894;28;20267;-66
2021/08/21 03:44:14;;;;;;;;;;;;;;;;;;10284791;28;19920;-67
2021/08/21 03:49:11;;;;;;;;;;;;;;;;;;10278985;28;19933;-67
2021/08/21 03:54:09;;;;;;;;;;;;;;;;;;10293120;28;20407;-66
2021/08/21 03:59:06;;;;;;;;;;;;;;;;;;10284646;28;19909;-66
2021/08/21 04:04:07;;;;;;;;;;;;;;;;;;10282006;28;19917;-66
2021/08/21 04:09:08;;;;;;;;;;;;;;;;;;10269135;28;20410;-66
2021/08/21 04:14:08;;;;;;;;;;;;;;;;;;10283116;28;19918;-66
2021/08/21 04:19:06;;;;;;;;;;;;;;;;;;10284157;28;19996;-67
2021/08/21 04:24:09;;;;;;;;;;;;;;;;;;10284555;28;19928;-66
2021/08/21 04:29:10;;;;;;;;;;;;;;;;;;10272696;28;19944;-67
2021/08/21 04:34:07;;;;;;;;;;;;;;;;;;10277779;28;19917;-67
2021/08/21 04:39:05;;;;;;;;;;;;;;;;;;10288979;28;19917;-66
2021/08/21 04:44:02;;;;;;;;;;;;;;;;;;10276468;28;19917;-67
2021/08/21 04:49:00;;;;;;;;;;;;;;;;;;10286513;28;20542;-66
2021/08/21 04:53:58;;;;;;;;;;;;;;;;;;10259009;28;20011;-66
2021/08/21 04:58:55;;;;;;;;;;;;;;;;;;10282277;28;20346;-66
2021/08/21 05:03:52;;;;;;;;;;;;;;;;;;10281434;28;20297;-65
2021/08/21 05:08:50;;;;;;;;;;;;;;;;;;10269448;28;20392;-65
2021/08/21 05:13:47;;;;;;;;;;;;;;;;;;10295743;28;19917;-65
2021/08/21 05:18:51;;;;;;;;;;;;;;;;;;10279090;28;19921;-65
2021/08/21 05:23:55;;;;;;;;;;;;;;;;;;10274910;28;19918;-66
2021/08/21 05:28:53;;;;;;;;;;;;;;;;;;10302961;28;19921;-66
2021/08/21 05:33:50;;;;;;;;;;;;;;;;;;10288833;28;19928;-66
2021/08/21 05:38:47;;;;;;;;;;;;;;;;;;10304069;28;19917;-66
2021/08/21 05:43:45;;;;;;;;;;;;;;;;;;10294045;28;19930;-66
2021/08/21 05:48:42;;;;;;;;;;;;;;;;;;10289312;28;19921;-66
2021/08/21 05:53:39;;;;;;;;;;;;;;;;;;10290877;28;19921;-66
2021/08/21 05:58:37;;;;;;;;;;;;;;;;;;10284556;28;19999;-65
2021/08/21 06:03:34;;;;;;;;;;;;;;;;;;10289085;28;19917;-66
2021/08/21 06:08:31;;;;;;;;;;;;;;;;;;10271974;28;19933;-65
2021/08/21 06:13:30;;;;;;;;;;;;;;;;;;10265050;28;19921;-65
2021/08/21 06:18:27;;;;;;;;;;;;;;;;;;10282407;28;19917;-65
2021/08/21 06:23:25;;;;;;;;;;;;;;;;;;10278799;28;20276;-66
2021/08/21 06:28:22;;;;;;;;;;;;;;;;;;10283354;28;20523;-65
2021/08/21 06:33:19;;;;;;;;;;;;;;;;;;10287370;28;19917;-66
2021/08/21 06:38:16;;;;;;;;;;;;;;;;;;10293401;28;19917;-66
2021/08/21 06:43:14;;;;;;;;;;;;;;;;;;10271616;28;19921;-66
2021/08/21 06:48:32;;;;;;;;;;;;;;;;;;10273455;28;19921;-66
2021/08/21 06:53:30;;;;;;;;;;;;;;;;;;10271963;28;19917;-66
2021/08/21 06:58:28;;;;;;;;;;;;;;;;;;10281913;28;20446;-66
2021/08/21 07:03:25;;;;;;;;;;;;;;;;;;10275539;28;20373;-66
2021/08/21 07:08:24;;;;;;;;;;;;;;;;;;10279435;28;21431;-66
2021/08/21 07:13:24;;;;;;;;;;;;;;;;;;10274060;28;20320;-66
2021/08/21 07:18:21;;;;;;;;;;;;;;;;;;10289613;28;19921;-67
2021/08/21 07:23:19;;;;;;;;;;;;;;;;;;10291718;28;19967;-67
2021/08/21 07:28:16;;;;;;;;;;;;;;;;;;10258247;28;19971;-67
2021/08/21 07:33:13;;;;;;;;;;;;;;;;;;10261515;28;20430;-67
2021/08/21 07:38:10;;;;;;;;;;;;;;;;;;10285052;28;19921;-66
2021/08/21 07:43:08;;;;;;;;;;;;;;;;;;10265807;28;20313;-66
2021/08/21 07:48:05;;;;;;;;;;;;;;;;;;10275856;28;19983;-67
2021/08/21 07:53:02;;;;;;;;;;;;;;;;;;10283622;28;19921;-67
2021/08/21 07:58:00;;;;;;;;;;;;;;;;;;10277759;28;20427;-66
2021/08/21 08:02:57;;;;;;;;;;;;;;;;;;10285509;28;19921;-65
2021/08/21 08:07:55;;;;;;;;;;;;;;;;;;10285220;28;19944;-66
2021/08/21 08:12:52;;;;;;;;;;;;;;;;;;10276974;28;19924;-66
2021/08/21 08:17:49;;;;;;;;;;;;;;;;;;10279904;28;20411;-67
2021/08/21 08:22:46;;;;;;;;;;;;;;;;;;10283325;28;19917;-66
2021/08/21 08:27:45;;;;;;;;;;;;;;;;;;10283296;28;19964;-66
2021/08/21 08:32:43;;;;;;;;;;;;;;;;;;10267821;28;19918;-68
2021/08/21 08:37:41;;;;;;;;;;;;;;;;;;10272993;28;20178;-68
2021/08/21 08:42:39;;;;;;;;;;;;;;;;;;10289054;28;19963;-66
2021/08/21 08:47:36;;;;;;;;;;;;;;;;;;10303002;28;20013;-67
2021/08/21 08:52:34;;;;;;;;;;;;;;;;;;10265159;28;19917;-65
2021/08/21 08:57:31;;;;;;;;;;;;;;;;;;10278433;28;20238;-67
2021/08/21 09:02:29;;;;;;;;;;;;;;;;;;10283681;28;19925;-67
2021/08/21 09:07:26;;;;;;;;;;;;;;;;;;10296271;28;19929;-67
2021/08/21 09:12:24;;;;;;;;;;;;;;;;;;10290081;28;20442;-68
2021/08/21 09:17:21;;;;;;;;;;;;;;;;;;10282689;28;19925;-68
2021/08/21 09:22:18;;;;;;;;;;;;;;;;;;10284929;28;19916;-67
2021/08/21 09:27:16;;;;;;;;;;;;;;;;;;10276260;28;20399;-68
2021/08/21 09:32:13;;;;;;;;;;;;;;;;;;10289824;28;19969;-66
2021/08/21 09:37:11;;;;;;;;;;;;;;;;;;10283464;28;20375;-67
2021/08/21 09:42:08;;;;;;;;;;;;;;;;;;10300281;28;20016;-67
2021/08/21 09:47:05;;;;;;;;;;;;;;;;;;10261457;28;19917;-67
2021/08/21 09:52:02;;;;;;;;;;;;;;;;;;10286715;28;19924;-67
2021/08/21 09:57:00;;;;;;;;;;;;;;;;;;10282284;28;19921;-68
2021/08/21 10:01:57;;;;;;;;;;;;;;;;;;10266841;28;20390;-68
2021/08/21 10:06:54;;;;;;;;;;;;;;;;;;10276562;28;19924;-66
2021/08/21 10:11:52;;;;;;;;;;;;;;;;;;10286097;28;19990;-66
2021/08/21 10:16:50;;;;;;;;;;;;;;;;;;10270335;28;19928;-67
2021/08/21 10:21:47;;;;;;;;;;;;;;;;;;10280747;28;19913;-68
2021/08/21 10:26:44;;;;;;;;;;;;;;;;;;10279541;28;20339;-67
2021/08/21 10:31:42;;;;;;;;;;;;;;;;;;10287270;28;20301;-67
2021/08/21 10:36:39;;;;;;;;;;;;;;;;;;10273508;28;20492;-67
2021/08/21 10:41:36;;;;;;;;;;;;;;;;;;10285585;28;20373;-67
2021/08/21 10:46:34;;;;;;;;;;;;;;;;;;10285306;28;20360;-67
2021/08/21 10:51:31;;;;;;;;;;;;;;;;;;10283134;28;20400;-67
2021/08/21 10:56:28;;;;;;;;;;;;;;;;;;10282270;28;20154;-67
2021/08/21 11:01:26;;;;;;;;;;;;;;;;;;10293018;28;20286;-67
2021/08/21 11:06:23;;;;;;;;;;;;;;;;;;10259728;28;19925;-67
2021/08/21 11:11:32;;;;;;;;;;;;;;;;;;10263056;28;19923;-68
2021/08/21 11:16:30;;;;;;;;;;;;;;;;;;10280797;28;19956;-67
2021/08/21 11:21:27;;;;;;;;;;;;;;;;;;10304924;28;19948;-66
2021/08/21 11:26:25;;;;;;;;;;;;;;;;;;10254480;28;19922;-67
2021/08/21 11:31:22;;;;;;;;;;;;;;;;;;10287950;28;19925;-67
2021/08/21 11:36:19;;;;;;;;;;;;;;;;;;10288793;28;19921;-67
2021/08/21 11:41:16;;;;;;;;;;;;;;;;;;10285110;28;20257;-71
2021/08/21 11:46:14;;;;;;;;;;;;;;;;;;10279775;28;19937;-68
2021/08/21 11:51:12;;;;;;;;;;;;;;;;;;10280729;28;19927;-73
2021/08/21 11:56:14;;;;;;;;;;;;;;;;;;10294245;28;19917;-69
2021/08/21 12:01:13;;;;;;;;;;;;;;;;;;10279717;28;19928;-70
2021/08/21 12:06:10;;;;;;;;;;;;;;;;;;10250962;28;20511;-69
2021/08/21 12:11:07;;;;;;;;;;;;;;;;;;10245111;28;19921;-68
2021/08/21 12:16:04;;;;;;;;;;;;;;;;;;10244754;28;19924;-68
2021/08/21 12:21:02;;;;;;;;;;;;;;;;;;10236004;28;20436;-68
2021/08/21 12:26:00;;;;;;;;;;;;;;;;;;10241137;28;19929;-68
2021/08/21 12:30:57;;;;;;;;;;;;;;;;;;10228776;28;19918;-68
2021/08/21 12:35:54;;;;;;;;;;;;;;;;;;10237205;28;19925;-69
2021/08/21 12:40:52;;;;;;;;;;;;;;;;;;10253242;28;20455;-67
2021/08/21 12:45:49;;;;;;;;;;;;;;;;;;10269935;28;19977;-68
2021/08/21 12:50:46;;;;;;;;;;;;;;;;;;10256936;28;19921;-68
2021/08/21 12:55:44;;;;;;;;;;;;;;;;;;10237715;28;19963;-68
2021/08/21 13:00:41;;;;;;;;;;;;;;;;;;10263084;28;19921;-67
2021/08/21 13:05:38;;;;;;;;;;;;;;;;;;10271477;28;19921;-68
2021/08/21 13:10:37;;;;;;;;;;;;;;;;;;10267548;28;19928;-71
2021/08/21 13:15:34;;;;;;;;;;;;;;;;;;10248154;28;19925;-70
2021/08/21 13:20:31;;;;;;;;;;;;;;;;;;10245655;28;19917;-69
2021/08/21 13:25:29;;;;;;;;;;;;;;;;;;10254412;28;20117;-72
2021/08/21 13:30:26;;;;;;;;;;;;;;;;;;10254617;28;20473;-72
2021/08/21 13:35:23;;;;;;;;;;;;;;;;;;10261230;28;19924;-69
2021/08/21 13:40:21;;;;;;;;;;;;;;;;;;10250158;28;20016;-68
2021/08/21 13:45:18;;;;;;;;;;;;;;;;;;10261972;28;19918;-68
2021/08/21 13:50:15;;;;;;;;;;;;;;;;;;10255031;28;19929;-68
2021/08/21 13:55:13;;;;;;;;;;;;;;;;;;10244345;28;20402;-69
2021/08/21 14:00:10;;;;;;;;;;;;;;;;;;10248579;28;19918;-68
2021/08/21 14:05:07;;;;;;;;;;;;;;;;;;10276008;28;19921;-68
2021/08/21 14:10:05;;;;;;;;;;;;;;;;;;10287051;28;20067;-66
2021/08/21 14:15:02;;;;;;;;;;;;;;;;;;10269796;28;19998;-68
2021/08/21 14:20:01;;;;;;;;;;;;;;;;;;10296159;28;19917;-68
2021/08/21 14:24:58;;;;;;;;;;;;;;;;;;10277124;28;20314;-66
2021/08/21 14:29:56;;;;;;;;;;;;;;;;;;10290716;28;19921;-67
2021/08/21 14:34:53;;;;;;;;;;;;;;;;;;10300281;28;19917;-68
2021/08/21 14:39:51;;;;;;;;;;;;;;;;;;10281271;28;20120;-68
2021/08/21 14:44:48;;;;;;;;;;;;;;;;;;10272333;28;19979;-68
2021/08/21 14:49:45;;;;;;;;;;;;;;;;;;10280546;28;20463;-66
2021/08/21 14:54:43;;;;;;;;;;;;;;;;;;10280972;28;19970;-68
2021/08/21 14:59:40;;;;;;;;;;;;;;;;;;10280762;28;19917;-65
2021/08/21 15:04:37;;;;;;;;;;;;;;;;;;10269536;28;20351;-68
2021/08/21 15:09:36;;;;;;;;;;;;;;;;;;10274203;28;20001;-66
2021/08/21 15:14:33;;;;;;;;;;;;;;;;;;10281362;28;20016;-68
2021/08/21 15:19:30;;;;;;;;;;;;;;;;;;10290001;28;20000;-68
2021/08/21 15:24:34;;;;;;;;;;;;;;;;;;10290171;28;20367;-68
2021/08/21 15:29:32;;;;;;;;;;;;;;;;;;10276161;28;20168;-68
2021/08/21 15:34:29;;;;;;;;;;;;;;;;;;10284015;28;19928;-68
2021/08/21 15:39:27;;;;;;;;;;;;;;;;;;10295860;28;20004;-67
2021/08/21 15:44:24;;;;;;;;;;;;;;;;;;10290454;28;19958;-68
2021/08/21 15:49:21;;;;;;;;;;;;;;;;;;10270546;28;20371;-68
2021/08/21 15:54:18;;;;;;;;;;;;;;;;;;10284219;28;20332;-69
2021/08/21 15:59:16;;;;;;;;;;;;;;;;;;10282097;28;19917;-68
2021/08/21 16:04:13;;;;;;;;;;;;;;;;;;10288876;28;19944;-68
2021/08/21 16:09:10;;;;;;;;;;;;;;;;;;10281507;28;19952;-68
2021/08/21 16:14:08;;;;;;;;;;;;;;;;;;10278774;28;19921;-69
2021/08/21 16:19:05;;;;;;;;;;;;;;;;;;10290551;28;19932;-69
2021/08/21 16:24:03;;;;;;;;;;;;;;;;;;10280693;28;19968;-69
2021/08/21 16:29:04;;;;;;;;;;;;;;;;;;10286857;28;20056;-67
2021/08/21 16:34:02;;;;;;;;;;;;;;;;;;10253517;28;19948;-69
2021/08/21 16:38:59;;;;;;;;;;;;;;;;;;10271819;28;19924;-69
2021/08/21 16:43:57;;;;;;;;;;;;;;;;;;10267766;28;20230;-68
2021/08/21 16:48:54;;;;;;;;;;;;;;;;;;10264651;28;19975;-68
2021/08/21 16:53:51;;;;;;;;;;;;;;;;;;10285561;28;19917;-68
2021/08/21 16:58:49;;;;;;;;;;;;;;;;;;10287367;28;20425;-68
2021/08/21 17:03:46;;;;;;;;;;;;;;;;;;10284684;28;19917;-68
2021/08/21 17:08:43;;;;;;;;;;;;;;;;;;10278764;28;19971;-67
2021/08/21 17:13:40;;;;;;;;;;;;;;;;;;10278248;28;20256;-68
2021/08/21 17:18:38;;;;;;;;;;;;;;;;;;10288926;28;19915;-68
2021/08/21 17:23:35;;;;;;;;;;;;;;;;;;10290725;28;19913;-68
2021/08/21 17:28:32;;;;;;;;;;;;;;;;;;10274195;28;20015;-71
2021/08/21 17:33:33;;;;;;;;;;;;;;;;;;10290310;28;19924;-70
2021/08/21 17:38:31;;;;;;;;;;;;;;;;;;10277595;28;20015;-67
2021/08/21 17:43:28;;;;;;;;;;;;;;;;;;10289925;28;20885;-68
2021/08/21 17:48:25;;;;;;;;;;;;;;;;;;10267779;28;19987;-68
2021/08/21 17:53:23;;;;;;;;;;;;;;;;;;10262700;28;20020;-67
2021/08/21 17:58:20;;;;;;;;;;;;;;;;;;10266985;28;19964;-68
2021/08/21 18:03:17;;;;;;;;;;;;;;;;;;10269459;28;20036;-68
2021/08/21 18:08:15;;;;;;;;;;;;;;;;;;10279223;28;19929;-67
2021/08/21 18:13:12;;;;;;;;;;;;;;;;;;10280551;28;20391;-67
2021/08/21 18:18:09;;;;;;;;;;;;;;;;;;10262035;28;19928;-68
2021/08/21 18:23:07;;;;;;;;;;;;;;;;;;10272982;28;19971;-68
2021/08/21 18:28:04;;;;;;;;;;;;;;;;;;10276638;28;19968;-69
2021/08/21 18:33:02;;;;;;;;;;;;;;;;;;10277266;28;19983;-68
2021/08/21 18:37:59;;;;;;;;;;;;;;;;;;10263689;28;19917;-67
2021/08/21 18:42:56;;;;;;;;;;;;;;;;;;10270140;28;20583;-68
2021/08/21 18:47:54;;;;;;;;;;;;;;;;;;10279940;28;20260;-67
2021/08/21 18:52:51;;;;;;;;;;;;;;;;;;10280427;28;20058;-68
2021/08/21 18:57:48;;;;;;;;;;;;;;;;;;10294958;28;19917;-67
2021/08/21 19:02:46;;;;;;;;;;;;;;;;;;10254944;28;20148;-68
2021/08/21 19:07:43;;;;;;;;;;;;;;;;;;10289024;28;19929;-69
2021/08/21 19:12:40;;;;;;;;;;;;;;;;;;10282811;28;20070;-67
2021/08/21 19:17:38;;;;;;;;;;;;;;;;;;10281633;28;20368;-69
2021/08/21 19:22:35;;;;;;;;;;;;;;;;;;10285986;28;19924;-68
2021/08/21 19:27:32;;;;;;;;;;;;;;;;;;10289538;28;20426;-70
2021/08/21 19:32:30;;;;;;;;;;;;;;;;;;10295513;28;19917;-71
2021/08/21 19:37:27;;;;;;;;;;;;;;;;;;10293009;28;19940;-68
2021/08/21 19:42:25;;;;;;;;;;;;;;;;;;10275204;28;19967;-68
2021/08/21 19:47:22;;;;;;;;;;;;;;;;;;10293606;28;19960;-68
2021/08/21 19:52:19;;;;;;;;;;;;;;;;;;10290123;28;20264;-68
2021/08/21 19:57:16;;;;;;;;;;;;;;;;;;10275669;28;20375;-68
2021/08/21 20:02:14;;;;;;;;;;;;;;;;;;10286655;28;19917;-66
2021/08/21 20:07:11;;;;;;;;;;;;;;;;;;10291622;28;19921;-68
2021/08/21 20:12:08;;;;;;;;;;;;;;;;;;10291419;28;19917;-69
2021/08/21 20:17:06;;;;;;;;;;;;;;;;;;10273881;28;19921;-68
2021/08/21 20:22:04;;;;;;;;;;;;;;;;;;10286533;28;20283;-67
2021/08/21 20:27:02;;;;;;;;;;;;;;;;;;10262206;28;20045;-69
2021/08/21 20:32:01;;;;;;;;;;;;;;;;;;10267604;28;20406;-69
2021/08/21 20:37:01;;;;;;;;;;;;;;;;;;10292537;28;20284;-69
2021/08/21 20:42:00;;;;;;;;;;;;;;;;;;10277182;28;19917;-67
2021/08/21 20:46:58;;;;;;;;;;;;;;;;;;10285141;28;20467;-67
2021/08/21 20:51:55;;;;;;;;;;;;;;;;;;10283031;28;20004;-69
2021/08/21 20:56:52;;;;;;;;;;;;;;;;;;10297261;28;19987;-67
2021/08/21 21:01:49;;;;;;;;;;;;;;;;;;10298753;28;19918;-69
2021/08/21 21:06:47;;;;;;;;;;;;;;;;;;10273716;28;20291;-67
2021/08/21 21:11:44;;;;;;;;;;;;;;;;;;10296354;28;19921;-69
2021/08/21 21:16:41;;;;;;;;;;;;;;;;;;10292803;28;19917;-67
2021/08/21 21:21:39;;;;;;;;;;;;;;;;;;10294077;28;20070;-67
2021/08/21 21:26:36;;;;;;;;;;;;;;;;;;10294541;28;21091;-67
2021/08/21 21:31:34;;;;;;;;;;;;;;;;;;10293423;28;20063;-67
2021/08/21 21:36:31;;;;;;;;;;;;;;;;;;10287257;28;19918;-67
2021/08/21 21:41:28;;;;;;;;;;;;;;;;;;10280661;28;20308;-67
2021/08/21 21:46:30;;;;;;;;;;;;;;;;;;10283094;28;19932;-67
2021/08/21 21:51:27;;;;;;;;;;;;;;;;;;10282633;28;19922;-67
2021/08/21 21:56:25;;;;;;;;;;;;;;;;;;10277081;28;19921;-66
2021/08/21 22:01:22;;;;;;;;;;;;;;;;;;10278015;28;20379;-67
2021/08/21 22:06:19;;;;;;;;;;;;;;;;;;10275998;28;20136;-67
2021/08/21 22:11:17;;;;;;;;;;;;;;;;;;10291309;28;20251;-67
2021/08/21 22:16:14;;;;;;;;;;;;;;;;;;10289328;28;19918;-66
2021/08/21 22:21:11;;;;;;;;;;;;;;;;;;10298461;28;19921;-68
2021/08/21 22:26:08;;;;;;;;;;;;;;;;;;10301187;28;19925;-67
2021/08/21 22:31:06;;;;;;;;;;;;;;;;;;10284254;28;19924;-67
2021/08/21 22:36:03;;;;;;;;;;;;;;;;;;10293087;28;19964;-66
2021/08/21 22:41:00;;;;;;;;;;;;;;;;;;10298292;28;20000;-67
2021/08/21 22:45:58;;;;;;;;;;;;;;;;;;10286511;28;20011;-65
2021/08/21 22:50:55;;;;;;;;;;;;;;;;;;10282336;28;19964;-67
2021/08/21 22:55:53;;;;;;;;;;;;;;;;;;10296709;28;20017;-67
2021/08/21 23:00:50;;;;;;;;;;;;;;;;;;10289255;28;19967;-67
2021/08/21 23:05:47;;;;;;;;;;;;;;;;;;10276936;28;20003;-67
2021/08/21 23:10:44;;;;;;;;;;;;;;;;;;10288203;28;20276;-67
2021/08/21 23:15:42;;;;;;;;;;;;;;;;;;10295629;28;20065;-68
2021/08/21 23:20:39;;;;;;;;;;;;;;;;;;10278481;28;20008;-67
2021/08/21 23:25:36;;;;;;;;;;;;;;;;;;10271615;28;19913;-67
2021/08/21 23:30:34;;;;;;;;;;;;;;;;;;10291672;28;19917;-67
2021/08/21 23:35:31;;;;;;;;;;;;;;;;;;10295510;28;19962;-67
2021/08/21 23:40:28;;;;;;;;;;;;;;;;;;10284672;28;19925;-66
2021/08/21 23:45:26;;;;;;;;;;;;;;;;;;10289321;28;19917;-67
2021/08/21 23:50:24;;;;;;;;;;;;;;;;;;10291504;28;20015;-68
2021/08/21 23:55:21;;;;;;;;;;;;;;;;;;10290254;28;19960;-68
